ArgentinaFixed distance
Tandil Ultra Trail
27 Aug2023
Distance
50km
Finishers
7155 men16 women
Winning time
4:13:01h
Median pace
8.29km/h
Pace distribution
71 finishers · 6.29–11.86 km/h · mean 8.43
Every finisher ran the same 50 km course, so these paces are directly comparable.
Histogram of finisher pace. 71 finishers ranged from 6.29 to 11.86 kilometres per hour, with a mean of 8.43 and a median of 8.29. The busiest band is 7.0 to 7.5 kilometres per hour, with 12 finishers.
Results
Ranks 1–50 of 71
| Rank | Runner | Time | Pace | Cat. | Placing |
|---|---|---|---|---|---|
| 1 | Kumelen Running - Tandil | 4:13:01h | 11.86 | M35 | 1st M · 1st M35 |
| 2 | Libre | 4:14:31h | 11.79 | M45 | 2nd M · 1st M45 |
| 3 | PÉ &Peedal Ecologika | 4:21:50h | 11.46 | M45 | 3rd M · 2nd M45 |
| 4 | Diego Simon Trail Run | 4:36:47h | 10.84 | M35 | 4th M · 2nd M35 |
| 5 | Gordiola Corredores | 4:40:59h | 10.68 | M23 | 5th M · 1st M23 |
| 6 | Jota Running | 4:41:36h | 10.65 | M45 | 6th M · 3rd M45 |
| 7 | Gustatrail | 4:51:23h | 10.30 | M40 | 7th M · 1st M40 |
| 8 | Skyward Running Team | 4:55:14h | 10.16 | M23 | 8th M · 2nd M23 |
| 9 | JP.Runn | 4:56:28h | 10.12 | W35 | 1st F · 1st W35 |
| 10 | HR Entrenamiento | 4:57:06h | 10.10 | W45 | 2nd F · 1st W45 |
| 11 | Gustatrail | 5:01:16h | 9.96 | W40 | 3rd F · 1st W40 |
| 12 | Libre | 5:01:17h | 9.96 | M50 | 9th M · 1st M50 |
| 13 | Libre | 5:01:43h | 9.94 | M45 | 10th M · 4th M45 |
| 14 | Diego Simon Trail Run | 5:07:11h | 9.77 | M23 | 11th M · 3rd M23 |
| 15 | Gustatrail | 5:08:25h | 9.73 | M50 | 12th M · 2nd M50 |
| 16 | Gustatrail | 5:15:20h | 9.51 | M23 | 13th M · 4th M23 |
| 17 | GET FIT Bahia | 5:19:27h | 9.39 | M40 | 14th M · 2nd M40 |
| 18 | Gustatrail | 5:20:45h | 9.35 | M40 | 15th M · 3rd M40 |
| 19 | Libre | 5:24:31h | 9.24 | M45 | 16th M · 5th M45 |
| 20 | Josefina Milanesi Corr... | 5:25:33h | 9.21 | W23 | 4th F · 1st W23 |
| 21 | Diego Simon Trail Run | 5:29:24h | 9.11 | W45 | 5th F · 2nd W45 |
| 22 | Libre | 5:33:52h | 8.99 | M40 | 17th M · 4th M40 |
| 23 | Fun Training | 5:36:59h | 8.90 | M23 | 18th M · 5th M23 |
| 24 | Gustatrail | 5:40:26h | 8.81 | M50 | 19th M · 3rd M50 |
| 25 | Activo Entrena | 5:42:10h | 8.77 | M40 | 20th M · 5th M40 |
| 26 | Libre | 5:42:51h | 8.75 | M40 | 21st M · 6th M40 |
| 27 | Libre | 5:43:53h | 8.72 | M50 | 22nd M · 4th M50 |
| 28 | Libre | 5:43:53h | 8.72 | M50 | 22nd M · 4th M50 |
| 29 | Libre | 5:43:54h | 8.72 | M40 | 24th M · 7th M40 |
| 30 | Gustatrail | 5:48:58h | 8.60 | W45 | 6th F · 3rd W45 |
| 31 | Libre | 5:49:39h | 8.58 | M40 | 25th M · 8th M40 |
| 32 | Gustatrail | 5:50:15h | 8.56 | M40 | 26th M · 9th M40 |
| 33 | Nahuel Luengo Running ... | 5:58:19h | 8.37 | W35 | 7th F · 2nd W35 |
| 34 | Libre | 5:59:47h | 8.34 | W40 | 8th F · 2nd W40 |
| 35 | Libre | 5:59:48h | 8.34 | W40 | 9th F · 3rd W40 |
| 36 | Gustatrail | 6:01:45h | 8.29 | M23 | 27th M · 6th M23 |
| 37 | SAG Running Team | 6:04:31h | 8.23 | M60 | 28th M · 1st M60 |
| 38 | Libre | 6:07:42h | 8.16 | M40 | 29th M · 10th M40 |
| 39 | Iron Team | 6:07:46h | 8.16 | M35 | 30th M · 3rd M35 |
| 40 | Gustatrail | 6:09:07h | 8.13 | M55 | 31st M · 1st M55 |
| 41 | Team General Belgrano | 6:11:18h | 8.08 | M45 | 32nd M · 6th M45 |
| 42 | Team General Belgrano | 6:11:18h | 8.08 | W40 | 10th F · 4th W40 |
| 43 | Garufi Running | 6:11:47h | 8.07 | M55 | 33rd M · 2nd M55 |
| 44 | Libre | 6:22:16h | 7.85 | M50 | 34th M · 6th M50 |
| 45 | Gustatrail | 6:29:10h | 7.71 | M35 | 35th M · 4th M35 |
| 46 | Fnteam | 6:29:10h | 7.71 | W40 | 11th F · 5th W40 |
| 47 | Fnteam | 6:29:10h | 7.71 | M45 | 35th M · 7th M45 |
| 48 | Libre | 6:36:48h | 7.56 | M50 | 37th M · 7th M50 |
| 49 | AZ Team Amigos & Running | 6:38:42h | 7.52 | M45 | 38th M · 8th M45 |
| 50 | Gustatrail | 6:39:30h | 7.51 | M40 | 39th M · 11th M40 |
- 1Kumelen Running - Tandil1st M · 1st M35Time4:13:01hPace11.86Cat.M35
- 2Libre2nd M · 1st M45Time4:14:31hPace11.79Cat.M45
- 3PÉ &Peedal Ecologika3rd M · 2nd M45Time4:21:50hPace11.46Cat.M45
- 4Diego Simon Trail Run4th M · 2nd M35Time4:36:47hPace10.84Cat.M35
- 5Gordiola Corredores5th M · 1st M23Time4:40:59hPace10.68Cat.M23
- 6Jota Running6th M · 3rd M45Time4:41:36hPace10.65Cat.M45
- 7Gustatrail7th M · 1st M40Time4:51:23hPace10.30Cat.M40
- 8Skyward Running Team8th M · 2nd M23Time4:55:14hPace10.16Cat.M23
- 9JP.Runn1st F · 1st W35Time4:56:28hPace10.12Cat.W35
- 10HR Entrenamiento2nd F · 1st W45Time4:57:06hPace10.10Cat.W45
- 11Gustatrail3rd F · 1st W40Time5:01:16hPace9.96Cat.W40
- 12Libre9th M · 1st M50Time5:01:17hPace9.96Cat.M50
- 13Libre10th M · 4th M45Time5:01:43hPace9.94Cat.M45
- 14Diego Simon Trail Run11th M · 3rd M23Time5:07:11hPace9.77Cat.M23
- 15Gustatrail12th M · 2nd M50Time5:08:25hPace9.73Cat.M50
- 16Gustatrail13th M · 4th M23Time5:15:20hPace9.51Cat.M23
- 17GET FIT Bahia14th M · 2nd M40Time5:19:27hPace9.39Cat.M40
- 18Gustatrail15th M · 3rd M40Time5:20:45hPace9.35Cat.M40
- 19Libre16th M · 5th M45Time5:24:31hPace9.24Cat.M45
- 20Josefina Milanesi Corr...4th F · 1st W23Time5:25:33hPace9.21Cat.W23
- 21Diego Simon Trail Run5th F · 2nd W45Time5:29:24hPace9.11Cat.W45
- 22Libre17th M · 4th M40Time5:33:52hPace8.99Cat.M40
- 23Fun Training18th M · 5th M23Time5:36:59hPace8.90Cat.M23
- 24Gustatrail19th M · 3rd M50Time5:40:26hPace8.81Cat.M50
- 25Activo Entrena20th M · 5th M40Time5:42:10hPace8.77Cat.M40
- 26Libre21st M · 6th M40Time5:42:51hPace8.75Cat.M40
- 27Libre22nd M · 4th M50Time5:43:53hPace8.72Cat.M50
- 28Libre22nd M · 4th M50Time5:43:53hPace8.72Cat.M50
- 29Libre24th M · 7th M40Time5:43:54hPace8.72Cat.M40
- 30Gustatrail6th F · 3rd W45Time5:48:58hPace8.60Cat.W45
- 31Libre25th M · 8th M40Time5:49:39hPace8.58Cat.M40
- 32Gustatrail26th M · 9th M40Time5:50:15hPace8.56Cat.M40
- 33Nahuel Luengo Running ...7th F · 2nd W35Time5:58:19hPace8.37Cat.W35
- 34Libre8th F · 2nd W40Time5:59:47hPace8.34Cat.W40
- 35Libre9th F · 3rd W40Time5:59:48hPace8.34Cat.W40
- 36Gustatrail27th M · 6th M23Time6:01:45hPace8.29Cat.M23
- 37SAG Running Team28th M · 1st M60Time6:04:31hPace8.23Cat.M60
- 38Libre29th M · 10th M40Time6:07:42hPace8.16Cat.M40
- 39Iron Team30th M · 3rd M35Time6:07:46hPace8.16Cat.M35
- 40Gustatrail31st M · 1st M55Time6:09:07hPace8.13Cat.M55
- 41Team General Belgrano32nd M · 6th M45Time6:11:18hPace8.08Cat.M45
- 42Team General Belgrano10th F · 4th W40Time6:11:18hPace8.08Cat.W40
- 43Garufi Running33rd M · 2nd M55Time6:11:47hPace8.07Cat.M55
- 44Libre34th M · 6th M50Time6:22:16hPace7.85Cat.M50
- 45Gustatrail35th M · 4th M35Time6:29:10hPace7.71Cat.M35
- 46Fnteam11th F · 5th W40Time6:29:10hPace7.71Cat.W40
- 47Fnteam35th M · 7th M45Time6:29:10hPace7.71Cat.M45
- 48Libre37th M · 7th M50Time6:36:48hPace7.56Cat.M50
- 49AZ Team Amigos & Running38th M · 8th M45Time6:38:42hPace7.52Cat.M45
- 50Gustatrail39th M · 11th M40Time6:39:30hPace7.51Cat.M40
Showing ranks 1–50 of 71